sensor_id;sensor_type;location;lat;lon;timestamp;P1;durP1;ratioP1;P2;durP2;ratioP2
45734;SDS011;31446;49.632;8.328;2022-09-13T00:14:13;12.02;;;3.00;;
45734;SDS011;31446;49.632;8.328;2022-09-13T00:29:13;13.93;;;3.08;;
45734;SDS011;31446;49.632;8.328;2022-09-13T00:59:54;10.17;;;3.60;;
45734;SDS011;31446;49.632;8.328;2022-09-13T01:14:57;4.65;;;3.78;;
45734;SDS011;31446;49.632;8.328;2022-09-13T02:01:05;6.25;;;4.30;;
45734;SDS011;31446;49.632;8.328;2022-09-13T02:16:17;7.50;;;4.65;;
45734;SDS011;31446;49.632;8.328;2022-09-13T02:31:25;8.90;;;4.03;;
45734;SDS011;31446;49.632;8.328;2022-09-13T02:46:37;9.63;;;4.63;;
45734;SDS011;31446;49.632;8.328;2022-09-13T03:01:50;7.30;;;4.20;;
45734;SDS011;31446;49.632;8.328;2022-09-13T03:17:14;14.93;;;4.32;;
45734;SDS011;31446;49.632;8.328;2022-09-13T03:32:46;9.65;;;3.80;;
45734;SDS011;31446;49.632;8.328;2022-09-13T03:47:54;6.53;;;3.70;;
45734;SDS011;31446;49.632;8.328;2022-09-13T04:02:56;5.72;;;3.25;;
45734;SDS011;31446;49.632;8.328;2022-09-13T04:17:57;4.00;;;3.58;;
45734;SDS011;31446;49.632;8.328;2022-09-13T04:32:58;13.07;;;4.15;;
45734;SDS011;31446;49.632;8.328;2022-09-13T04:47:58;3.97;;;3.60;;
45734;SDS011;31446;49.632;8.328;2022-09-13T05:02:59;9.93;;;5.25;;
45734;SDS011;31446;49.632;8.328;2022-09-13T05:18:00;13.65;;;5.70;;
45734;SDS011;31446;49.632;8.328;2022-09-13T05:33:00;20.73;;;9.60;;
45734;SDS011;31446;49.632;8.328;2022-09-13T05:48:01;19.95;;;8.68;;
45734;SDS011;31446;49.632;8.328;2022-09-13T06:03:01;20.30;;;9.05;;
45734;SDS011;31446;49.632;8.328;2022-09-13T06:18:02;10.48;;;6.00;;
45734;SDS011;31446;49.632;8.328;2022-09-13T06:33:02;7.90;;;5.45;;
45734;SDS011;31446;49.632;8.328;2022-09-13T06:48:03;10.48;;;6.07;;
45734;SDS011;31446;49.632;8.328;2022-09-13T07:03:03;10.57;;;6.25;;
45734;SDS011;31446;49.632;8.328;2022-09-13T07:18:04;12.00;;;5.90;;
45734;SDS011;31446;49.632;8.328;2022-09-13T07:33:05;10.80;;;6.85;;
45734;SDS011;31446;49.632;8.328;2022-09-13T07:48:05;10.68;;;7.15;;
45734;SDS011;31446;49.632;8.328;2022-09-13T08:03:06;10.68;;;6.88;;
45734;SDS011;31446;49.632;8.328;2022-09-13T08:18:07;12.73;;;7.00;;
45734;SDS011;31446;49.632;8.328;2022-09-13T08:33:09;15.00;;;7.38;;
45734;SDS011;31446;49.632;8.328;2022-09-13T08:48:11;17.67;;;7.68;;
45734;SDS011;31446;49.632;8.328;2022-09-13T09:18:28;10.25;;;5.50;;
45734;SDS011;31446;49.632;8.328;2022-09-13T09:48:51;10.88;;;4.30;;
45734;SDS011;31446;49.632;8.328;2022-09-13T10:34:28;5.25;;;4.20;;
45734;SDS011;31446;49.632;8.328;2022-09-13T10:49:34;7.00;;;4.20;;
45734;SDS011;31446;49.632;8.328;2022-09-13T11:05:03;7.43;;;3.92;;
45734;SDS011;31446;49.632;8.328;2022-09-13T12:21:24;9.73;;;4.30;;
45734;SDS011;31446;49.632;8.328;2022-09-13T13:06:51;7.22;;;6.10;;
45734;SDS011;31446;49.632;8.328;2022-09-13T13:22:45;14.27;;;6.38;;
45734;SDS011;31446;49.632;8.328;2022-09-13T13:37:34;14.43;;;7.88;;
45734;SDS011;31446;49.632;8.328;2022-09-13T13:52:37;17.00;;;7.50;;
45734;SDS011;31446;49.632;8.328;2022-09-13T14:07:57;20.30;;;8.00;;
45734;SDS011;31446;49.632;8.328;2022-09-13T14:23:16;19.40;;;8.05;;
45734;SDS011;31446;49.632;8.328;2022-09-13T14:38:19;12.50;;;7.40;;
45734;SDS011;31446;49.632;8.328;2022-09-13T14:53:24;18.80;;;5.90;;
45734;SDS011;31446;49.632;8.328;2022-09-13T15:23:36;8.35;;;6.35;;
45734;SDS011;31446;49.632;8.328;2022-09-13T15:54:01;20.48;;;5.40;;
45734;SDS011;31446;49.632;8.328;2022-09-13T16:09:09;12.85;;;6.57;;
45734;SDS011;31446;49.632;8.328;2022-09-13T16:24:19;16.97;;;8.00;;
45734;SDS011;31446;49.632;8.328;2022-09-13T16:39:19;25.48;;;10.48;;
45734;SDS011;31446;49.632;8.328;2022-09-13T16:54:20;22.27;;;10.13;;
45734;SDS011;31446;49.632;8.328;2022-09-13T17:09:21;22.55;;;10.98;;
45734;SDS011;31446;49.632;8.328;2022-09-13T17:24:23;19.02;;;10.73;;
45734;SDS011;31446;49.632;8.328;2022-09-13T17:39:24;18.50;;;11.10;;
45734;SDS011;31446;49.632;8.328;2022-09-13T17:54:25;24.48;;;11.63;;
45734;SDS011;31446;49.632;8.328;2022-09-13T18:09:25;19.58;;;13.60;;
45734;SDS011;31446;49.632;8.328;2022-09-13T18:24:26;20.40;;;13.30;;
45734;SDS011;31446;49.632;8.328;2022-09-13T18:39:26;19.95;;;13.57;;
45734;SDS011;31446;49.632;8.328;2022-09-13T18:54:27;21.63;;;13.32;;
45734;SDS011;31446;49.632;8.328;2022-09-13T19:09:28;19.77;;;13.35;;
45734;SDS011;31446;49.632;8.328;2022-09-13T19:24:28;22.63;;;14.15;;
45734;SDS011;31446;49.632;8.328;2022-09-13T19:39:29;20.65;;;14.38;;
45734;SDS011;31446;49.632;8.328;2022-09-13T19:54:29;25.52;;;13.52;;
45734;SDS011;31446;49.632;8.328;2022-09-13T20:09:30;32.03;;;14.65;;
45734;SDS011;31446;49.632;8.328;2022-09-13T20:24:33;20.38;;;12.18;;
45734;SDS011;31446;49.632;8.328;2022-09-13T20:39:34;15.77;;;10.02;;
45734;SDS011;31446;49.632;8.328;2022-09-13T20:54:35;14.35;;;9.40;;
45734;SDS011;31446;49.632;8.328;2022-09-13T21:09:35;10.98;;;9.25;;
45734;SDS011;31446;49.632;8.328;2022-09-13T21:24:36;14.05;;;7.90;;
45734;SDS011;31446;49.632;8.328;2022-09-13T21:39:37;17.98;;;8.13;;
45734;SDS011;31446;49.632;8.328;2022-09-13T21:54:37;16.08;;;8.90;;
45734;SDS011;31446;49.632;8.328;2022-09-13T22:09:38;14.57;;;9.02;;
45734;SDS011;31446;49.632;8.328;2022-09-13T22:24:39;19.52;;;7.70;;
45734;SDS011;31446;49.632;8.328;2022-09-13T22:39:39;12.18;;;8.32;;
45734;SDS011;31446;49.632;8.328;2022-09-13T22:54:40;15.52;;;9.07;;
45734;SDS011;31446;49.632;8.328;2022-09-13T23:09:41;20.50;;;11.43;;
45734;SDS011;31446;49.632;8.328;2022-09-13T23:24:41;16.33;;;12.85;;
45734;SDS011;31446;49.632;8.328;2022-09-13T23:39:42;21.38;;;12.68;;
45734;SDS011;31446;49.632;8.328;2022-09-13T23:54:42;20.35;;;13.32;;
